KMML/MML METAR and TAF weather

Enter ICAO airport designator
Station Type Date Time Source
KMML METAR 2021/09/24 02:56 UTC NOAA

KMML 240256Z AUTO 15004KT 10SM CLR 14/09 A2990 RMK AO2 SLP124 T01440089 50002


Station Type Date Time Source
KMML Decoded METAR 2021/09/24 02:56 UTC NOAA

Marshall, Southwest Minnesota Regional Airport - Marshall/Ryan Field, MN, United States (KMML) 44-27N 095-49W
Sep 23, 2021 - 10:56 PM EDT / 2021.09.24 0256 UTC
Wind: from the SSE (150 degrees) at 5 MPH (4 KT):0
Visibility: 10 mile(s):0
Sky conditions: clear
Temperature: 57.9 F (14.4 C)
Dew Point: 48.0 F (8.9 C)
Relative Humidity: 69%
Pressure (altimeter): 29.9 in. Hg (1012 hPa)
Pressure tendency: 0.01 inches (0.2 hPa) higher than three hours ago
ob: KMML 240256Z AUTO 15004KT 10SM CLR 14/09 A2990 RMK AO2 SLP124 T01440089 50002
cycle: 3

Station Type Date Time Source
KMML TAF UTC NOAA

Error!

Example: see airport list